Time;durP1;ratioP1;P1;durP2;ratioP2;P2;SDS_P1;SDS_P2;PMS_P1;PMS_P2;Temp;Humidity;BMP_temperature;BMP_pressure;BME280_temperature;BME280_humidity;BME280_pressure;Samples;Min_cycle;Max_cycle;Signal;HPM_P1;HPM_P2
2023/10/08 00:00:55;;;;;;;0.40;0.40;;;;;;;10.58;85.19;96157.00;5015847;28;20428;-73
2023/10/08 00:03:21;;;;;;;1.52;0.30;;;;;;;10.36;85.08;96181.84;5034919;28;20044;-74
2023/10/08 00:05:50;;;;;;;0.30;0.30;;;;;;;10.52;84.80;96189.78;5018584;28;20080;-74
2023/10/08 00:08:16;;;;;;;1.55;0.68;;;;;;;10.27;84.59;96174.25;5033803;28;20074;-74
2023/10/08 00:10:44;;;;;;;2.60;0.32;;;;;;;10.22;84.35;96182.13;5017738;28;20037;-73
2023/10/08 00:13:15;;;;;;;0.30;0.30;;;;;;;10.55;84.54;96186.66;5033801;28;20079;-72
2023/10/08 00:15:49;;;;;;;;;;;;;;;10.64;83.99;96192.38;5014531;28;20068;-72
2023/10/08 00:18:17;;;;;;;0.70;0.35;;;;;;;10.35;83.43;96180.25;5007908;28;20328;-72
2023/10/08 00:20:47;;;;;;;1.95;0.60;;;;;;;10.42;83.47;96188.81;5017034;28;20041;-73
2023/10/08 00:23:15;;;;;;;0.65;0.50;;;;;;;10.24;83.53;96187.19;5017041;28;20075;-72
2023/10/08 00:25:41;;;;;;;1.17;0.47;;;;;;;10.14;83.01;96192.34;4983107;28;20423;-72
2023/10/08 00:28:13;;;;;;;0.47;0.40;;;;;;;10.43;83.15;96199.19;5014236;28;20052;-72
2023/10/08 00:30:41;;;;;;;2.35;0.30;;;;;;;10.42;82.27;96186.19;4998615;28;20763;-72
2023/10/08 00:33:08;;;;;;;0.60;0.40;;;;;;;10.49;82.03;96190.28;4982123;28;20052;-71
2023/10/08 00:35:41;;;;;;;0.30;0.30;;;;;;;10.57;81.54;96189.88;5031373;28;20068;-71
2023/10/08 00:38:20;;;;;;;4.28;0.47;;;;;;;10.50;81.32;96186.56;5033805;28;20135;-72
2023/10/08 00:40:50;;;;;;;1.27;0.40;;;;;;;10.40;81.45;96189.06;5002590;28;20076;-72
2023/10/08 00:43:35;;;;;;;0.40;0.40;;;;;;;10.54;81.98;96202.81;5017520;28;20072;-71
2023/10/08 00:46:10;;;;;;;1.77;0.40;;;;;;;10.47;82.12;96186.25;5033446;28;20139;-71
2023/10/08 00:48:36;;;;;;;2.65;0.30;;;;;;;10.24;81.79;96197.81;5050397;28;20130;-71
2023/10/08 00:54:05;;;;;;;2.72;0.57;;;;;;;10.33;82.04;96198.22;5049828;28;20041;-71
2023/10/08 00:56:57;;;;;;;0.40;0.40;;;;;;;10.48;82.08;96191.31;4995883;28;20053;-71
2023/10/08 00:59:24;;;;;;;0.40;0.40;;;;;;;10.40;82.10;96194.38;4979844;28;20472;-70
2023/10/08 01:01:51;;;;;;;1.10;0.40;;;;;;;10.44;81.78;96203.44;4995914;28;20510;-70
2023/10/08 01:04:28;;;;;;;0.50;0.50;;;;;;;10.57;81.43;96178.44;4979889;28;20053;-70
2023/10/08 01:06:59;;;;;;;0.75;0.43;;;;;;;10.30;80.65;96188.09;4979612;28;20103;-70
2023/10/08 01:09:35;;;;;;;2.55;0.30;;;;;;;10.31;80.28;96185.22;4964576;28;20044;-70
2023/10/08 01:15:04;;;;;;;1.17;0.43;;;;;;;10.06;79.60;96197.97;5016313;28;20072;-70
2023/10/08 01:17:32;;;;;;;0.30;0.30;;;;;;;10.03;79.34;96203.75;5015919;28;20139;-71
2023/10/08 01:20:21;;;;;;;0.85;0.40;;;;;;;10.10;79.08;96186.69;5011712;28;20041;-72
2023/10/08 01:22:47;;;;;;;0.73;0.35;;;;;;;10.11;78.63;96193.63;4996670;28;20077;-72
2023/10/08 01:25:21;;;;;;;3.30;0.35;;;;;;;10.10;78.94;96191.22;4974306;28;20041;-72
2023/10/08 01:27:47;;;;;;;0.47;0.35;;;;;;;10.11;78.35;96193.63;5000793;28;20053;-72
2023/10/08 01:30:20;;;;;;;0.30;0.30;;;;;;;10.21;78.19;96195.63;4980296;28;20056;-72
2023/10/08 01:32:46;;;;;;;0.30;0.30;;;;;;;10.15;77.78;96196.59;4984837;28;20044;-72
2023/10/08 01:35:22;;;;;;;2.22;0.30;;;;;;;10.15;77.46;96193.94;4998400;28;20144;-72
2023/10/08 01:37:54;;;;;;;0.47;0.38;;;;;;;10.13;77.18;96201.34;5018702;28;20057;-72
2023/10/08 01:40:21;;;;;;;0.40;0.40;;;;;;;9.90;76.95;96180.22;5001087;28;20057;-70
2023/10/08 01:42:51;;;;;;;0.65;0.40;;;;;;;10.13;77.08;96196.03;4984855;28;20355;-71
2023/10/08 01:45:18;;;;;;;1.17;0.40;;;;;;;10.20;76.47;96192.19;4984852;28;20455;-72
2023/10/08 01:47:45;;;;;;;0.68;0.40;;;;;;;10.04;76.11;96189.50;5002440;28;20137;-72
2023/10/08 01:50:21;;;;;;;0.35;0.35;;;;;;;9.96;76.43;96193.31;5004974;28;20071;-71
2023/10/08 01:52:48;;;;;;;3.83;0.40;;;;;;;10.08;76.65;96180.03;5018552;28;20171;-71
2023/10/08 01:55:18;;;;;;;0.40;0.40;;;;;;;9.95;76.26;96185.59;5017149;28;20053;-72
2023/10/08 01:57:51;;;;;;;0.75;0.30;;;;;;;10.13;76.22;96172.97;5017022;28;20045;-73
2023/10/08 02:00:19;;;;;;;1.17;0.40;;;;;;;10.03;76.43;96195.81;5017830;28;20057;-72
2023/10/08 02:02:47;;;;;;;0.30;0.30;;;;;;;10.11;75.45;96164.47;5018783;28;20064;-73
2023/10/08 02:05:15;;;;;;;0.57;0.57;;;;;;;10.16;74.86;96187.59;5019510;28;20111;-71
2023/10/08 02:07:44;;;;;;;0.80;0.60;;;;;;;9.93;74.44;96183.16;4985247;28;20484;-71
2023/10/08 02:10:10;;;;;;;1.30;0.60;;;;;;;9.80;74.21;96194.06;4999466;28;20380;-71
2023/10/08 02:12:40;;;;;;;1.77;0.43;;;;;;;9.87;75.00;96184.13;4999266;28;20444;-71
2023/10/08 02:15:07;;;;;;;0.65;0.65;;;;;;;9.81;75.35;96181.63;5032156;28;20123;-72
2023/10/08 02:17:34;;;;;;;0.40;0.40;;;;;;;9.35;75.45;96210.91;5014940;28;20065;-70
2023/10/08 02:20:04;;;;;;;0.50;0.50;;;;;;;9.32;76.03;96183.03;4998830;28;20111;-70
2023/10/08 02:22:50;;;;;;;0.63;0.40;;;;;;;9.24;76.29;96187.91;5003191;28;20455;-71
2023/10/08 02:25:16;;;;;;;2.33;0.50;;;;;;;9.27;76.76;96174.22;4998661;28;20316;-71
2023/10/08 02:27:42;;;;;;;0.40;0.40;;;;;;;9.20;76.65;96179.63;4998760;28;20056;-70
2023/10/08 02:30:10;;;;;;;3.05;0.50;;;;;;;9.15;76.56;96184.81;5031585;28;20056;-71
2023/10/08 02:32:36;;;;;;;4.43;0.60;;;;;;;8.97;76.33;96171.72;4962884;28;20056;-72
2023/10/08 02:35:04;;;;;;;0.40;0.40;;;;;;;9.16;76.52;96169.72;4966825;28;20048;-73
2023/10/08 02:37:30;;;;;;;0.50;0.50;;;;;;;9.32;75.89;96169.81;4967534;28;20053;-73
2023/10/08 02:39:57;;;;;;;3.50;0.50;;;;;;;9.51;75.45;96178.41;5032753;28;20353;-72
2023/10/08 02:42:24;;;;;;;0.52;0.43;;;;;;;9.50;75.26;96179.44;4992643;28;20041;-73
2023/10/08 02:44:51;;;;;;;6.15;0.70;;;;;;;9.53;74.98;96176.31;4970957;28;20053;-71
2023/10/08 02:47:20;;;;;;;2.65;0.50;;;;;;;9.43;74.76;96181.41;4993743;28;20140;-70
2023/10/08 02:49:49;;;;;;;1.02;0.50;;;;;;;9.41;74.77;96184.28;4999531;28;20072;-70
2023/10/08 02:52:15;;;;;;;3.70;0.38;;;;;;;9.55;74.51;96172.38;4999156;28;20141;-70
2023/10/08 02:54:43;;;;;;;0.77;0.47;;;;;;;9.31;74.31;96172.69;4963756;28;20531;-70
2023/10/08 02:57:14;;;;;;;1.33;0.43;;;;;;;9.44;74.59;96165.28;4979014;28;20201;-70
2023/10/08 02:59:44;;;;;;;0.80;0.45;;;;;;;9.20;74.35;96142.56;4982527;28;20045;-71
2023/10/08 03:02:21;;;;;;;0.95;0.40;;;;;;;9.17;75.17;96179.28;4986479;28;20080;-71
2023/10/08 03:04:51;;;;;;;3.22;0.60;;;;;;;9.24;75.67;96175.47;4982121;28;20080;-70
2023/10/08 03:07:21;;;;;;;0.80;0.40;;;;;;;9.14;75.48;96187.69;4998427;28;20073;-69
2023/10/08 03:10:17;;;;;;;4.13;0.60;;;;;;;9.23;75.84;96175.69;4998722;28;20081;-70
2023/10/08 03:12:46;;;;;;;0.40;0.40;;;;;;;9.04;76.26;96171.59;4969815;28;20490;-73
2023/10/08 03:15:15;;;;;;;6.40;0.70;;;;;;;9.02;76.44;96171.03;4965221;28;20503;-73
2023/10/08 03:17:48;;;;;;;2.03;0.52;;;;;;;9.09;76.24;96166.41;4962190;28;20150;-70
2023/10/08 03:23:23;;;;;;;0.57;0.50;;;;;;;9.02;75.89;96155.97;4951741;28;20101;-73
2023/10/08 03:26:09;;;;;;;0.70;0.60;;;;;;;9.06;75.97;96162.38;4925134;28;20051;-73
2023/10/08 03:28:37;;;;;;;2.92;0.70;;;;;;;8.95;76.07;96157.91;4955379;28;20086;-73
2023/10/08 03:31:04;;;;;;;1.30;0.47;;;;;;;9.10;76.32;96162.72;4955599;28;20046;-73
2023/10/08 03:33:37;;;;;;;1.48;0.50;;;;;;;8.78;76.06;96157.00;5007378;28;20044;-73
2023/10/08 03:36:10;;;;;;;0.47;0.47;;;;;;;9.09;76.76;96169.03;5018125;28;20631;-72
2023/10/08 03:38:56;;;;;;;3.08;0.50;;;;;;;9.15;76.55;96178.72;5051285;28;20102;-72
2023/10/08 03:41:33;;;;;;;1.95;0.50;;;;;;;9.20;76.37;96155.78;5017522;28;20051;-72
2023/10/08 03:44:01;;;;;;;4.03;0.70;;;;;;;9.06;76.39;96153.63;5035988;28;20045;-72
2023/10/08 03:46:29;;;;;;;1.88;0.88;;;;;;;9.18;76.49;96171.09;5002242;28;20037;-72
2023/10/08 03:48:57;;;;;;;1.05;0.60;;;;;;;9.09;76.13;96158.47;5016646;28;20503;-73
2023/10/08 03:51:27;;;;;;;2.20;0.68;;;;;;;9.18;76.09;96178.25;5018180;28;20040;-72
2023/10/08 03:54:15;;;;;;;3.42;0.57;;;;;;;8.76;75.86;96143.22;5001878;28;20051;-71
2023/10/08 03:56:48;;;;;;;5.57;0.70;;;;;;;8.96;77.11;96162.19;4987803;28;20111;-69
2023/10/08 03:59:29;;;;;;;2.08;0.50;;;;;;;9.04;77.06;96175.03;4999322;28;20060;-70
2023/10/08 04:02:13;;;;;;;0.45;0.45;;;;;;;8.78;77.25;96164.16;4984672;28;20076;-70
2023/10/08 04:05:44;;;;;;;0.60;0.50;;;;;;;8.88;77.13;96122.03;4983781;28;20041;-71
2023/10/08 04:08:04;;;;;;;1.48;0.70;;;;;;;8.81;77.17;96135.38;5005022;28;20049;-70
2023/10/08 04:13:10;;;;;;;2.38;0.60;;;;;;;9.15;76.17;96158.34;5035431;28;20163;-69
2023/10/08 04:15:40;;;;;;;0.93;0.65;;;;;;;8.71;75.57;96148.38;5001758;28;20041;-69
2023/10/08 04:18:08;;;;;;;1.85;0.60;;;;;;;8.79;76.13;96155.16;5002007;28;20471;-69
2023/10/08 04:20:38;;;;;;;0.85;0.85;;;;;;;8.81;76.08;96150.47;5001553;28;20052;-69
2023/10/08 04:23:20;;;;;;;3.17;0.68;;;;;;;9.00;76.37;96150.09;5035994;28;20057;-69
2023/10/08 04:25:54;;;;;;;0.82;0.60;;;;;;;8.82;75.80;96186.44;4999521;28;20060;-69
2023/10/08 04:28:21;;;;;;;2.30;0.57;;;;;;;8.78;75.99;96158.84;4999180;28;20100;-69
2023/10/08 04:30:47;;;;;;;0.70;0.60;;;;;;;8.49;76.63;96169.31;4981578;28;20436;-69
2023/10/08 04:33:14;;;;;;;2.83;0.60;;;;;;;8.70;76.77;96160.00;4997569;28;20045;-69
2023/10/08 04:35:48;;;;;;;3.05;0.60;;;;;;;8.84;76.89;96150.78;4997866;28;20046;-70
2023/10/08 04:38:18;;;;;;;0.60;0.50;;;;;;;8.73;77.13;96167.50;4982120;28;20041;-70
2023/10/08 04:40:48;;;;;;;2.60;0.57;;;;;;;8.86;77.34;96167.22;4998564;28;20061;-70
2023/10/08 04:43:22;;;;;;;1.25;0.57;;;;;;;8.89;77.15;96174.72;5030712;28;20089;-70
2023/10/08 04:45:49;;;;;;;2.47;0.60;;;;;;;8.85;76.36;96163.00;4981564;28;20060;-71
2023/10/08 04:48:20;;;;;;;2.97;0.50;;;;;;;8.95;76.03;96168.50;5013883;28;20075;-71
2023/10/08 04:50:57;;;;;;;1.70;0.70;;;;;;;8.99;75.44;96167.00;4998240;28;20443;-70
2023/10/08 04:53:36;;;;;;;2.92;0.57;;;;;;;9.10;75.32;96168.81;4997622;28;20491;-71
2023/10/08 04:56:05;;;;;;;1.15;0.68;;;;;;;9.00;75.49;96179.19;4981349;28;20464;-70
2023/10/08 04:58:33;;;;;;;0.50;0.50;;;;;;;9.28;75.21;96173.97;5020639;28;20045;-70
2023/10/08 05:01:17;;;;;;;2.83;0.60;;;;;;;9.24;74.36;96183.41;4997145;28;20136;-71
2023/10/08 05:04:06;;;;;;;0.55;0.50;;;;;;;9.43;73.74;96194.66;5013397;28;20057;-71
2023/10/08 05:09:22;;;;;;;1.00;0.68;;;;;;;8.97;73.78;96184.94;5014008;28;20139;-70
2023/10/08 05:17:56;;;;;;;0.85;0.70;;;;;;;9.32;75.04;96200.75;4993338;28;20049;-71
2023/10/08 05:20:09;;;;;;;1.70;0.68;;;;;;;9.37;75.09;96188.44;4958579;28;20042;-69
2023/10/08 05:33:05;;;;;;;4.80;0.70;;;;;;;9.59;75.09;96199.22;4928064;29;20069;-71
2023/10/08 05:35:38;;;;;;;2.47;0.80;;;;;;;9.68;74.23;96213.69;4918282;29;20123;-71
2023/10/08 05:38:15;;;;;;;0.98;0.80;;;;;;;9.68;74.31;96203.91;4916580;29;20063;-71
2023/10/08 05:54:47;;;;;;;0.50;0.50;;;;;;;9.65;74.27;96219.47;4974228;28;20050;-68
2023/10/08 06:13:06;;;;;;;2.65;0.70;;;;;;;9.74;73.39;96237.41;5040666;28;20033;-72
2023/10/08 06:18:26;;;;;;;1.47;0.77;;;;;;;10.18;71.38;96223.44;4997420;28;20506;-74
2023/10/08 06:21:08;;;;;;;1.85;0.60;;;;;;;10.31;70.11;96229.47;5027307;28;20110;-73
2023/10/08 06:23:36;;;;;;;2.13;0.80;;;;;;;10.25;69.39;96239.19;5001002;28;20076;-73
2023/10/08 06:26:14;;;;;;;0.50;0.50;;;;;;;9.74;68.65;96232.13;4996610;28;20049;-72
2023/10/08 06:28:42;;;;;;;1.00;0.70;;;;;;;10.01;68.50;96206.66;5005159;28;20049;-71
2023/10/08 06:31:11;;;;;;;0.82;0.55;;;;;;;9.93;68.02;96225.56;4996471;28;20049;-71
2023/10/08 06:33:40;;;;;;;0.90;0.52;;;;;;;9.96;67.29;96221.66;4962176;28;20049;-72
2023/10/08 06:38:42;;;;;;;2.50;0.60;;;;;;;9.99;67.39;96207.94;5016016;28;20054;-71
2023/10/08 06:43:38;;;;;;;1.40;0.70;;;;;;;9.57;67.80;96230.41;4998801;28;20120;-72
2023/10/08 06:46:07;;;;;;;2.65;0.73;;;;;;;9.62;67.93;96230.53;4982558;28;20200;-73
2023/10/08 06:48:34;;;;;;;2.10;0.80;;;;;;;9.71;68.16;96214.03;4982898;28;20046;-72
2023/10/08 06:51:07;;;;;;;1.35;0.70;;;;;;;9.61;68.90;96227.06;5013060;28;20136;-72
2023/10/08 06:53:34;;;;;;;4.82;0.93;;;;;;;9.19;69.67;96199.19;5031405;28;20081;-73
2023/10/08 06:56:04;;;;;;;1.23;0.80;;;;;;;9.21;70.70;96234.16;5012387;28;20096;-76
2023/10/08 06:58:34;;;;;;;5.93;1.23;;;;;;;9.25;71.55;96237.97;4971881;28;20058;-71
2023/10/08 07:01:04;;;;;;;1.95;0.75;;;;;;;9.21;72.49;96220.94;5003703;28;20055;-72
2023/10/08 07:03:33;;;;;;;3.90;0.80;;;;;;;9.30;72.96;96242.56;5006185;28;20052;-71
2023/10/08 07:06:02;;;;;;;6.55;0.95;;;;;;;9.04;72.96;96206.00;5014532;28;20065;-70
2023/10/08 07:08:32;;;;;;;0.85;0.65;;;;;;;9.44;73.43;96230.69;4997272;28;20488;-66
2023/10/08 07:11:06;;;;;;;0.77;0.70;;;;;;;9.09;73.33;96243.97;5024631;28;20605;-67
2023/10/08 07:13:33;;;;;;;2.15;0.80;;;;;;;8.70;74.04;96235.91;5041242;28;20065;-74
2023/10/08 07:16:02;;;;;;;3.03;0.80;;;;;;;9.03;74.63;96244.88;5006893;28;20049;-76
2023/10/08 07:18:33;;;;;;;2.92;0.80;;;;;;;8.65;73.99;96226.00;4971652;28;20575;-73
2023/10/08 07:21:04;;;;;;;5.28;1.02;;;;;;;9.07;74.85;96246.03;4986480;28;20149;-71
2023/10/08 07:24:04;;;;;;;1.07;0.70;;;;;;;8.75;75.20;96243.97;4979579;28;20115;-75
2023/10/08 07:26:36;;;;;;;;;;;;;;;9.24;75.84;96254.09;4975460;28;20037;-78
2023/10/08 07:32:11;;;;;;;1.17;0.60;;;;;;;8.30;77.76;96243.66;5028392;28;20582;-77
2023/10/08 07:34:38;;;;;;;1.27;0.88;;;;;;;8.52;79.42;96263.22;4991367;28;20127;-76
2023/10/08 07:37:05;;;;;;;1.02;0.65;;;;;;;8.11;80.18;96264.03;4975319;28;20041;-76
2023/10/08 07:42:05;;;;;;;2.58;0.90;;;;;;;8.77;81.00;96253.28;4990164;28;20060;-73
2023/10/08 07:44:32;;;;;;;7.28;0.70;;;;;;;8.81;79.82;96249.13;4990610;28;20034;-66
2023/10/08 07:46:58;;;;;;;3.95;1.00;;;;;;;8.65;79.87;96231.31;5024762;28;20045;-74
2023/10/08 07:49:29;;;;;;;2.78;0.90;;;;;;;9.09;80.24;96269.63;4973484;28;20076;-74
2023/10/08 07:51:58;;;;;;;1.55;0.80;;;;;;;9.11;78.88;96268.38;5014485;28;20037;-74
2023/10/08 07:54:28;;;;;;;2.63;0.80;;;;;;;9.08;78.57;96252.94;5011989;28;20236;-73
2023/10/08 07:57:08;;;;;;;5.45;0.70;;;;;;;8.94;78.19;96248.91;5033590;28;20055;-71
2023/10/08 07:59:38;;;;;;;2.30;0.63;;;;;;;9.16;78.36;96273.78;5032446;28;20135;-70
2023/10/08 08:02:09;;;;;;;0.95;0.70;;;;;;;8.94;77.67;96279.84;4989963;28;20034;-72
2023/10/08 08:04:40;;;;;;;1.38;0.70;;;;;;;8.51;77.52;96317.97;5024595;28;20087;-71
2023/10/08 08:07:07;;;;;;;0.77;0.60;;;;;;;8.68;77.25;96253.84;5017876;28;20037;-70
2023/10/08 08:09:37;;;;;;;2.42;0.80;;;;;;;8.81;76.83;96241.19;5007398;28;20521;-71
2023/10/08 08:12:07;;;;;;;;;;;;;;;9.24;75.81;96283.22;5032205;28;20135;-72
2023/10/08 08:14:33;;;;;;;3.45;0.88;;;;;;;9.45;74.72;96270.19;4992776;28;20019;-71
2023/10/08 08:17:13;;;;;;;1.40;0.80;;;;;;;9.52;73.56;96297.34;5022978;28;20072;-71
2023/10/08 08:19:45;;;;;;;2.70;0.95;;;;;;;9.47;73.41;96283.19;5008848;28;20044;-72
2023/10/08 08:22:20;;;;;;;4.03;1.00;;;;;;;9.26;72.79;96279.28;4981823;28;20057;-72
2023/10/08 08:25:16;;;;;;;5.18;0.80;;;;;;;9.49;72.34;96286.41;5031063;28;20045;-69
2023/10/08 08:27:46;;;;;;;2.05;0.80;;;;;;;9.04;72.10;96293.34;5016711;28;20041;-72
2023/10/08 08:30:19;;;;;;;2.83;0.95;;;;;;;8.82;72.24;96294.91;5024432;28;20041;-71
2023/10/08 08:32:49;;;;;;;0.93;0.70;;;;;;;8.96;71.84;96291.84;5023788;28;20037;-72
2023/10/08 08:35:19;;;;;;;0.70;0.70;;;;;;;9.11;71.01;96300.13;5045103;28;20087;-71
2023/10/08 08:37:49;;;;;;;0.85;0.60;;;;;;;8.78;70.45;96315.72;5001427;28;20459;-69
2023/10/08 08:40:18;;;;;;;2.28;0.80;;;;;;;9.14;71.05;96307.63;5034036;28;20045;-70
2023/10/08 08:42:51;;;;;;;1.23;0.98;;;;;;;9.30;69.91;96283.06;5044453;28;20177;-73
2023/10/08 08:45:21;;;;;;;5.53;0.88;;;;;;;9.11;69.61;96315.19;5021642;28;20136;-72
2023/10/08 08:47:48;;;;;;;0.75;0.70;;;;;;;8.95;69.90;96329.13;4994651;28;20083;-72
2023/10/08 08:50:14;;;;;;;2.58;0.80;;;;;;;8.87;70.09;96290.56;5011854;28;20033;-73
2023/10/08 08:52:40;;;;;;;0.80;0.80;;;;;;;9.02;69.13;96296.22;5028208;28;20452;-71
2023/10/08 08:55:17;;;;;;;13.43;2.65;;;;;;;9.47;69.08;96315.75;4982004;28;20041;-72
2023/10/08 08:57:47;;;;;;;1.95;0.65;;;;;;;8.97;68.10;96330.50;4983979;28;20049;-72
2023/10/08 09:00:14;;;;;;;1.30;0.82;;;;;;;8.93;68.63;96323.25;4982097;28;20058;-74
2023/10/08 09:02:41;;;;;;;4.43;1.30;;;;;;;8.40;69.03;96310.00;5013984;28;20049;-72
2023/10/08 09:05:23;;;;;;;3.78;0.82;;;;;;;8.46;70.06;96323.13;5014778;28;20492;-74
2023/10/08 09:07:57;;;;;;;3.42;0.80;;;;;;;9.04;69.64;96330.38;5000336;28;20045;-73
2023/10/08 09:10:28;;;;;;;2.25;1.15;;;;;;;9.32;69.35;96320.72;5014093;28;20459;-73
2023/10/08 09:12:57;;;;;;;0.82;0.63;;;;;;;9.22;68.74;96312.56;5014854;28;20160;-73
2023/10/08 09:15:28;;;;;;;1.27;0.60;;;;;;;9.80;68.39;96321.25;5014633;28;20068;-73
2023/10/08 09:18:00;;;;;;;1.60;0.75;;;;;;;9.54;66.67;96361.50;4981802;28;20099;-71
2023/10/08 09:20:27;;;;;;;1.42;0.90;;;;;;;9.15;67.84;96326.97;4999138;28;20391;-73
2023/10/08 09:23:26;;;;;;;1.02;0.60;;;;;;;9.63;67.98;96324.84;4997816;28;20065;-73
2023/10/08 09:26:02;;;;;;;1.40;0.75;;;;;;;8.90;67.63;96310.47;4938887;28;20446;-73
2023/10/08 09:28:28;;;;;;;2.28;0.70;;;;;;;8.96;67.52;96365.13;4954448;28;20132;-73
2023/10/08 09:30:58;;;;;;;0.70;0.70;;;;;;;9.10;67.89;96327.63;4907273;28;20070;-73
2023/10/08 09:33:25;;;;;;;2.00;1.02;;;;;;;9.88;66.75;96338.66;4942208;28;20034;-74
2023/10/08 09:35:55;;;;;;;1.17;0.85;;;;;;;10.20;65.27;96329.25;4986021;28;20054;-73
2023/10/08 09:38:23;;;;;;;0.88;0.73;;;;;;;10.58;63.56;96315.38;5001941;28;20179;-73
2023/10/08 09:40:49;;;;;;;1.65;0.73;;;;;;;10.71;62.59;96346.91;5001854;28;20055;-71
2023/10/08 09:43:16;;;;;;;5.35;1.00;;;;;;;9.90;62.59;96355.91;5018404;28;20050;-72
2023/10/08 09:46:16;;;;;;;1.48;0.70;;;;;;;10.32;62.98;96343.28;5002618;28;20044;-72
2023/10/08 09:48:51;;;;;;;2.95;0.70;;;;;;;10.23;62.80;96340.19;5002266;28;20080;-72
2023/10/08 09:51:17;;;;;;;1.50;0.63;;;;;;;10.12;61.96;96335.75;5001874;28;20053;-73
2023/10/08 09:53:55;;;;;;;1.70;0.57;;;;;;;10.04;61.18;96335.28;5000650;28;20080;-72
2023/10/08 09:56:22;;;;;;;3.03;0.70;;;;;;;9.71;61.67;96333.25;5001617;28;20045;-73
2023/10/08 09:58:49;;;;;;;0.95;0.65;;;;;;;9.33;61.13;96377.94;5000833;28;20041;-74
2023/10/08 10:01:17;;;;;;;0.77;0.70;;;;;;;9.48;62.16;96337.78;5000968;28;20065;-73
2023/10/08 10:03:46;;;;;;;2.78;0.60;;;;;;;9.43;63.37;96338.47;5001187;28;20053;-72
2023/10/08 10:06:14;;;;;;;1.33;0.77;;;;;;;9.36;64.32;96350.22;5016947;28;20045;-72
2023/10/08 10:08:42;;;;;;;1.13;0.82;;;;;;;9.99;63.95;96357.16;5017398;28;20045;-74
2023/10/08 10:11:08;;;;;;;1.38;0.77;;;;;;;10.11;62.61;96350.03;5017863;28;20084;-71
2023/10/08 10:13:39;;;;;;;2.90;0.90;;;;;;;10.47;61.75;96359.47;5001639;28;20132;-74
2023/10/08 10:16:08;;;;;;;;;;;;;;;10.39;61.64;96341.31;4986413;28;20060;-74
2023/10/08 10:18:34;;;;;;;1.15;0.75;;;;;;;10.01;61.18;96346.31;5015941;28;20315;-74
2023/10/08 10:21:20;;;;;;;2.00;0.93;;;;;;;10.21;62.30;96397.16;4999781;28;20060;-69
2023/10/08 10:23:50;;;;;;;2.25;0.95;;;;;;;10.00;63.04;96331.47;5035345;28;20045;-75
2023/10/08 10:26:28;;;;;;;0.50;0.50;;;;;;;9.65;64.61;96358.03;4999582;28;20145;-74
2023/10/08 10:29:09;;;;;;;1.95;0.70;;;;;;;9.16;66.48;96363.78;4995698;28;20072;-74
2023/10/08 10:31:35;;;;;;;2.85;0.70;;;;;;;8.87;68.02;96385.00;4999310;28;20143;-73
2023/10/08 10:34:09;;;;;;;3.50;0.60;;;;;;;9.34;69.87;96347.78;5011774;28;20058;-70
2023/10/08 10:36:35;;;;;;;1.83;1.05;;;;;;;8.89;70.38;96338.75;4995557;28;20046;-72
2023/10/08 10:39:15;;;;;;;1.08;0.80;;;;;;;8.37;71.81;96356.19;4995453;28;20049;-73
2023/10/08 10:41:46;;;;;;;2.70;0.63;;;;;;;8.91;71.89;96362.34;4979535;28;20054;-74
2023/10/08 10:44:13;;;;;;;;;;;;;;;9.36;71.86;96356.31;4978359;28;20053;-69
2023/10/08 10:46:51;;;;;;;6.50;0.80;;;;;;;9.14;70.86;96323.50;4945571;28;19921;-71
2023/10/08 10:49:18;;;;;;;0.60;0.60;;;;;;;8.58;70.16;96381.31;4982130;28;20138;-71
2023/10/08 10:51:57;;;;;;;0.73;0.73;;;;;;;9.11;71.92;96361.00;4998450;28;20045;-68
2023/10/08 10:54:24;;;;;;;0.90;0.70;;;;;;;9.38;71.22;96341.00;4998215;28;20045;-72
2023/10/08 10:57:07;;;;;;;0.95;0.70;;;;;;;9.82;70.91;96366.09;4984616;28;20104;-75
2023/10/08 10:59:39;;;;;;;2.95;0.73;;;;;;;9.57;70.39;96363.69;5002316;28;20076;-72
2023/10/08 11:02:08;;;;;;;0.80;0.80;;;;;;;8.76;73.13;96361.97;5000146;28;20087;-73
2023/10/08 11:04:47;;;;;;;0.70;0.70;;;;;;;8.77;74.97;96374.97;5015887;28;20045;-74
2023/10/08 11:07:23;;;;;;;1.52;0.80;;;;;;;8.86;76.52;96376.25;5001812;28;20037;-74
2023/10/08 11:09:52;;;;;;;1.25;0.90;;;;;;;8.44;77.29;96369.34;5032325;28;20044;-71
2023/10/08 11:12:22;;;;;;;3.03;1.23;;;;;;;8.58;79.26;96370.75;4999625;28;20422;-72
2023/10/08 11:14:51;;;;;;;;;;;;;;;8.49;79.41;96361.53;4985201;28;20041;-71
2023/10/08 11:17:28;;;;;;;0.68;0.68;;;;;;;8.26;81.72;96374.63;4998998;28;19920;-72
2023/10/08 11:19:54;;;;;;;0.68;0.68;;;;;;;7.96;81.87;96369.31;5016279;28;20041;-74
2023/10/08 11:22:22;;;;;;;2.42;0.77;;;;;;;7.58;84.17;96370.53;5031788;28;20369;-71
2023/10/08 11:24:57;;;;;;;1.42;0.85;;;;;;;7.94;86.31;96381.09;4999206;28;20124;-74
2023/10/08 11:27:28;;;;;;;1.58;0.80;;;;;;;8.04;86.18;96370.84;5022187;28;20040;-73
2023/10/08 11:29:57;;;;;;;0.93;0.82;;;;;;;8.04;86.61;96392.75;5029950;28;20049;-75
2023/10/08 11:32:25;;;;;;;1.55;1.00;;;;;;;8.12;87.28;96360.75;5023974;28;20041;-74
2023/10/08 11:35:01;;;;;;;1.30;0.82;;;;;;;8.31;87.22;96361.56;4992738;28;20051;-74
2023/10/08 11:37:33;;;;;;;1.10;0.90;;;;;;;8.01;87.19;96366.00;5025509;28;20139;-74
2023/10/08 11:40:08;;;;;;;2.40;0.93;;;;;;;8.00;87.46;96385.50;5039680;28;20053;-70
2023/10/08 11:45:17;;;;;;;5.07;0.90;;;;;;;7.72;88.85;96385.22;5042280;28;20124;-75
2023/10/08 11:47:45;;;;;;;1.33;0.80;;;;;;;7.97;89.68;96380.66;5003082;28;20140;-77
2023/10/08 11:50:17;;;;;;;3.83;1.00;;;;;;;7.75;89.26;96388.22;5007218;28;20034;-72
2023/10/08 11:52:43;;;;;;;3.05;0.80;;;;;;;7.61;90.33;96373.50;5008724;28;20044;-76
2023/10/08 11:55:18;;;;;;;0.80;0.80;;;;;;;7.67;91.25;96329.59;5008174;28;20435;-75
2023/10/08 11:57:48;;;;;;;0.70;0.70;;;;;;;7.84;91.50;96394.03;5010577;28;20077;-73
2023/10/08 12:00:25;;;;;;;0.82;0.82;;;;;;;7.76;91.88;96374.00;5021986;28;20044;-71
2023/10/08 12:02:55;;;;;;;1.27;1.02;;;;;;;7.92;92.04;96381.31;4979873;28;20132;-72
2023/10/08 12:05:24;;;;;;;2.55;1.00;;;;;;;7.75;91.10;96401.41;4969035;28;20041;-73
2023/10/08 12:07:57;;;;;;;0.80;0.80;;;;;;;7.49;91.06;96371.84;4935428;28;20466;-80
2023/10/08 12:10:23;;;;;;;0.80;0.77;;;;;;;7.16;92.62;96345.75;4981366;28;20372;-71
2023/10/08 12:12:49;;;;;;;1.67;0.90;;;;;;;7.30;93.68;96373.63;4967949;28;20054;-80
2023/10/08 12:15:19;;;;;;;1.08;0.70;;;;;;;7.04;94.16;96339.56;4985937;28;20736;-79
2023/10/08 12:20:43;;;;;;;3.88;0.90;;;;;;;6.78;95.21;96390.66;4971031;28;20062;-79
2023/10/08 12:23:19;;;;;;;0.70;0.70;;;;;;;7.23;96.20;96372.88;4953897;28;20070;-78
2023/10/08 12:25:51;;;;;;;0.68;0.68;;;;;;;7.04;95.95;96394.16;4939731;28;20147;-78
2023/10/08 12:28:18;;;;;;;1.55;0.88;;;;;;;7.43;96.99;96362.13;4905399;29;20431;-74
2023/10/08 12:30:45;;;;;;;3.55;0.90;;;;;;;7.38;96.55;96373.34;4952585;28;20055;-77
2023/10/08 12:33:15;;;;;;;0.85;0.85;;;;;;;7.04;95.94;96391.50;4911776;28;20050;-81
2023/10/08 12:35:44;;;;;;;1.17;0.80;;;;;;;7.20;96.88;96378.59;4954889;28;20145;-82
2023/10/08 12:38:10;;;;;;;0.85;0.85;;;;;;;6.95;97.27;96382.25;4955222;28;20503;-78
2023/10/08 12:40:52;;;;;;;1.00;0.90;;;;;;;7.13;97.71;96361.19;4955009;28;20047;-82
2023/10/08 12:43:26;;;;;;;1.92;1.00;;;;;;;7.28;97.88;96388.88;4972171;28;20120;-77
2023/10/08 12:45:56;;;;;;;1.00;0.98;;;;;;;6.67;97.58;96349.16;4978831;28;20072;-79
2023/10/08 12:48:27;;;;;;;2.10;1.30;;;;;;;6.96;98.27;96387.31;4981082;28;20044;-80
2023/10/08 12:50:59;;;;;;;1.02;1.00;;;;;;;6.81;98.74;96371.00;4997460;28;20052;-79
2023/10/08 12:53:36;;;;;;;4.53;0.90;;;;;;;7.03;98.94;96355.59;4962188;28;20057;-79
2023/10/08 12:56:06;;;;;;;2.83;1.10;;;;;;;6.71;99.83;96371.47;4994904;28;20048;-76
2023/10/08 12:58:48;;;;;;;1.65;0.85;;;;;;;6.64;99.62;96370.69;4979848;28;20517;-80
2023/10/08 13:01:18;;;;;;;1.13;1.10;;;;;;;6.86;100.00;96377.22;4965505;28;20053;-80
2023/10/08 13:03:48;;;;;;;1.58;1.15;;;;;;;7.03;100.00;96382.78;4962774;28;20061;-77
2023/10/08 13:06:28;;;;;;;2.78;1.30;;;;;;;7.29;100.00;96377.28;4994094;28;20385;-78
2023/10/08 13:08:58;;;;;;;0.88;0.88;;;;;;;7.19;100.00;96384.06;5002832;28;20526;-72
2023/10/08 13:11:29;;;;;;;1.15;1.00;;;;;;;7.15;99.55;96388.19;5017743;28;20038;-78
2023/10/08 13:13:56;;;;;;;1.10;1.00;;;;;;;6.96;99.22;96358.28;5035582;28;20061;-77
2023/10/08 13:16:37;;;;;;;0.80;0.80;;;;;;;7.12;100.00;96386.75;5017801;28;20128;-79
2023/10/08 13:19:04;;;;;;;1.77;0.80;;;;;;;6.89;100.00;96387.34;5004174;28;20063;-78
2023/10/08 13:21:31;;;;;;;1.15;0.90;;;;;;;6.86;100.00;96393.06;5001184;28;20049;-73